createdAt,value
2019-04-22T00:00:36.514Z,14.1
2019-04-22T00:01:34.646Z,14.1
2019-04-22T00:02:41.018Z,14.0
2019-04-22T00:03:43.449Z,14.1
2019-04-22T00:04:52.532Z,14.1
2019-04-22T00:06:01.110Z,14.1
2019-04-22T00:07:03.283Z,14.2
2019-04-22T00:08:08.548Z,14.1
2019-04-22T00:09:12.514Z,14.1
2019-04-22T00:10:16.195Z,14.1
2019-04-22T00:11:11.026Z,14.1
2019-04-22T00:12:13.825Z,14.1
2019-04-22T00:13:23.744Z,14.0
2019-04-22T00:14:11.863Z,14.0
2019-04-22T00:15:09.783Z,14.0
2019-04-22T00:16:24.650Z,13.9
2019-04-22T00:17:26.294Z,13.9
2019-04-22T00:18:19.903Z,13.9
2019-04-22T00:20:22.755Z,13.8
2019-04-22T00:21:26.288Z,13.9
2019-04-22T00:22:29.156Z,13.8
2019-04-22T00:23:24.501Z,13.7
2019-04-22T00:24:30.720Z,13.7
2019-04-22T00:25:34.709Z,13.8
2019-04-22T00:26:37.546Z,13.7
2019-04-22T00:28:39.350Z,13.6
2019-04-22T00:29:50.192Z,13.6
2019-04-22T00:30:34.241Z,13.6
2019-04-22T00:31:40.549Z,13.7
2019-04-22T00:32:36.882Z,13.5
2019-04-22T00:33:39.389Z,13.6
2019-04-22T00:34:44.004Z,13.6
2019-04-22T00:35:41.386Z,13.5
2019-04-22T00:36:42.078Z,13.6
2019-04-22T00:37:54.834Z,13.5
2019-04-22T00:38:53.708Z,13.6
2019-04-22T00:39:55.005Z,13.5
2019-04-22T00:40:56.475Z,13.5
2019-04-22T00:41:58.240Z,13.6
2019-04-22T00:42:53.494Z,13.5
2019-04-22T00:44:02.585Z,13.5
2019-04-22T00:45:00.672Z,13.4
2019-04-22T00:45:56.280Z,13.4
2019-04-22T00:47:07.481Z,13.4
2019-04-22T00:48:09.279Z,13.4
2019-04-22T00:49:55.431Z,13.4
2019-04-22T00:52:09.304Z,13.4
2019-04-22T00:53:17.422Z,13.4
2019-04-22T00:54:06.011Z,13.3
2019-04-22T00:55:12.235Z,13.4
2019-04-22T00:57:15.433Z,13.3
2019-04-22T00:58:22.755Z,13.4
2019-04-22T00:59:17.238Z,13.3
2019-04-22T01:00:18.282Z,13.3
2019-04-22T01:01:26.570Z,13.3
2019-04-22T01:02:27.759Z,13.3
2019-04-22T01:03:26.113Z,13.3
2019-04-22T01:04:35.089Z,13.2
2019-04-22T01:05:27.877Z,13.2
2019-04-22T01:06:25.805Z,13.1
2019-04-22T01:07:30.871Z,13.1
2019-04-22T01:08:40.353Z,13.1
2019-04-22T01:09:34.848Z,13.0
2019-04-22T01:10:40.056Z,13.0
2019-04-22T01:11:34.965Z,13.0
2019-04-22T01:12:39.896Z,13.0
2019-04-22T01:13:42.470Z,13.0
2019-04-22T01:14:41.341Z,13.0
2019-04-22T01:15:40.438Z,13.0
2019-04-22T01:16:45.002Z,13.0
2019-04-22T01:17:45.339Z,13.1
2019-04-22T01:18:46.238Z,13.0
2019-04-22T01:19:50.986Z,13.0
2019-04-22T01:21:07.250Z,13.1
2019-04-22T01:22:06.700Z,13.0
2019-04-22T01:22:47.689Z,12.9
2019-04-22T01:23:52.099Z,12.9
2019-04-22T01:24:52.789Z,12.9
2019-04-22T01:25:54.963Z,12.8
2019-04-22T01:26:51.697Z,12.8
2019-04-22T01:27:49.031Z,12.8
2019-04-22T01:28:50.276Z,12.8
2019-04-22T01:29:50.781Z,12.8
2019-04-22T01:30:49.018Z,12.8
2019-04-22T01:31:43.852Z,12.8
2019-04-22T01:32:45.683Z,12.7
2019-04-22T01:33:58.629Z,12.7
2019-04-22T01:35:00.650Z,12.7
2019-04-22T01:36:10.598Z,12.5
2019-04-22T01:37:08.669Z,12.5
2019-04-22T01:38:07.823Z,12.5
2019-04-22T01:39:16.388Z,12.5
2019-04-22T01:40:17.749Z,12.4
2019-04-22T01:41:25.309Z,12.4
2019-04-22T01:42:18.676Z,12.4
2019-04-22T01:43:26.890Z,12.3
2019-04-22T01:45:29.507Z,12.2
2019-04-22T01:46:31.462Z,12.2
2019-04-22T01:47:33.085Z,12.1
2019-04-22T01:48:36.580Z,12.0
2019-04-22T01:50:31.740Z,11.9
2019-04-22T01:51:45.526Z,12.0
2019-04-22T01:52:39.892Z,12.0
2019-04-22T01:53:43.296Z,11.8
2019-04-22T01:54:40.274Z,11.8
2019-04-22T01:55:38.592Z,11.8
2019-04-22T01:56:44.919Z,11.8
2019-04-22T01:57:44.460Z,11.8
2019-04-22T01:58:38.089Z,11.8
2019-04-22T01:59:37.066Z,11.7
2019-04-22T02:00:51.041Z,11.7
2019-04-22T02:01:49.944Z,11.6
2019-04-22T02:02:49.234Z,11.6
2019-04-22T02:03:56.112Z,11.6
2019-04-22T02:04:51.464Z,11.6
2019-04-22T02:05:50.570Z,11.5
2019-04-22T02:06:59.176Z,11.5
2019-04-22T02:08:02.394Z,11.6
2019-04-22T02:09:00.685Z,11.5
2019-04-22T02:09:55.549Z,11.5
2019-04-22T02:11:00.768Z,11.6
2019-04-22T02:13:02.025Z,11.6
2019-04-22T02:14:09.195Z,11.6
2019-04-22T02:15:06.569Z,11.6
2019-04-22T02:16:12.554Z,11.6
2019-04-22T02:17:10.815Z,11.6
2019-04-22T02:18:18.306Z,11.5
2019-04-22T02:19:20.759Z,11.5
2019-04-22T02:20:13.421Z,11.4
2019-04-22T02:21:13.761Z,11.4
2019-04-22T02:22:24.960Z,11.5
2019-04-22T02:23:40.899Z,11.5
2019-04-22T02:24:20.125Z,11.4
2019-04-22T02:25:24.582Z,11.5
2019-04-22T02:26:29.911Z,11.4
2019-04-22T02:27:29.236Z,11.4
2019-04-22T02:28:34.216Z,11.4
2019-04-22T02:29:29.908Z,11.4
2019-04-22T02:30:41.075Z,11.3
2019-04-22T02:31:36.030Z,11.3
2019-04-22T02:34:40.195Z,11.2
2019-04-22T02:36:01.160Z,11.3
2019-04-22T02:36:43.057Z,11.1
2019-04-22T02:37:54.845Z,11.2
2019-04-22T02:38:59.046Z,11.2
2019-04-22T02:39:41.061Z,11.1
2019-04-22T02:41:08.732Z,11.2
2019-04-22T02:42:03.130Z,11.1
2019-04-22T02:42:51.671Z,11.1
2019-04-22T02:44:53.667Z,11.0
2019-04-22T02:46:13.425Z,11.0
2019-04-22T02:48:03.881Z,11.0
2019-04-22T02:49:11.826Z,11.0
2019-04-22T02:50:01.828Z,10.9
2019-04-22T02:51:59.931Z,11.0
2019-04-22T02:53:05.440Z,11.0
2019-04-22T02:55:11.522Z,10.9
2019-04-22T02:56:25.061Z,10.9
2019-04-22T02:58:12.580Z,10.9
2019-04-22T03:00:27.330Z,10.9
2019-04-22T03:01:25.032Z,10.8
2019-04-22T03:02:19.041Z,10.8
2019-04-22T03:03:31.307Z,10.8
2019-04-22T03:04:35.632Z,10.7
2019-04-22T03:05:27.685Z,10.7
2019-04-22T03:06:33.450Z,10.8
2019-04-22T03:07:29.373Z,10.7
2019-04-22T03:08:30.293Z,10.6
2019-04-22T03:09:35.093Z,10.6
2019-04-22T03:10:41.876Z,10.7
2019-04-22T03:11:34.114Z,10.6
2019-04-22T03:12:28.788Z,10.6
2019-04-22T03:13:47.379Z,10.6
2019-04-22T03:14:37.966Z,10.6
2019-04-22T03:15:48.371Z,10.6
2019-04-22T03:16:41.065Z,10.7
2019-04-22T03:17:41.343Z,10.6
2019-04-22T03:18:50.706Z,10.5
2019-04-22T03:19:50.473Z,10.6
2019-04-22T03:20:53.426Z,10.5
2019-04-22T03:21:50.208Z,10.4
2019-04-22T03:22:47.410Z,10.5
2019-04-22T03:25:05.492Z,10.5
2019-04-22T03:27:48.384Z,10.5
2019-04-22T03:30:26.198Z,10.3
2019-04-22T03:31:26.193Z,10.4
2019-04-22T03:32:40.332Z,10.3
2019-04-22T03:33:11.089Z,10.3
2019-04-22T03:36:29.577Z,10.3
2019-04-22T03:38:37.405Z,10.2
2019-04-22T03:39:31.972Z,10.1
2019-04-22T03:43:28.159Z,10.0
2019-04-22T03:44:35.849Z,10.1
2019-04-22T03:46:21.707Z,10.1
2019-04-22T03:47:29.981Z,10.1
2019-04-22T03:48:46.754Z,10.1
2019-04-22T03:50:25.246Z,10.0
2019-04-22T03:51:38.359Z,9.9
2019-04-22T03:52:27.027Z,10.0
2019-04-22T03:53:59.706Z,9.9
2019-04-22T03:55:29.467Z,10.0
2019-04-22T03:57:15.664Z,10.0
2019-04-22T03:58:38.980Z,10.1
2019-04-22T03:59:43.973Z,10.0
2019-04-22T04:00:55.333Z,10.1
2019-04-22T04:03:57.854Z,10.0
2019-04-22T04:04:45.604Z,10.0
2019-04-22T04:07:07.702Z,9.9
2019-04-22T04:07:52.018Z,9.9
2019-04-22T04:08:51.296Z,9.8
2019-04-22T04:10:01.440Z,9.8
2019-04-22T04:11:59.222Z,9.7
2019-04-22T04:13:02.919Z,9.8
2019-04-22T04:14:12.346Z,9.7
2019-04-22T04:15:13.921Z,9.8
2019-04-22T04:15:55.765Z,9.8
2019-04-22T04:17:09.661Z,9.8
2019-04-22T04:20:24.355Z,9.8
2019-04-22T04:21:22.783Z,9.8
2019-04-22T04:22:22.203Z,9.8
2019-04-22T04:23:19.908Z,9.7
2019-04-22T04:25:27.299Z,9.8
2019-04-22T04:26:26.471Z,9.7
2019-04-22T04:29:36.248Z,9.6
2019-04-22T04:31:33.101Z,9.7
2019-04-22T04:32:38.842Z,9.7
2019-04-22T04:33:28.984Z,9.7
2019-04-22T04:34:56.173Z,9.7
2019-04-22T04:36:35.414Z,9.7
2019-04-22T04:38:43.018Z,9.7
2019-04-22T04:39:44.016Z,9.7
2019-04-22T04:40:39.970Z,9.6
2019-04-22T04:41:42.424Z,9.7
2019-04-22T04:42:56.612Z,9.6
2019-04-22T04:43:59.607Z,9.7
2019-04-22T04:44:58.862Z,9.6
2019-04-22T04:46:49.735Z,9.7
2019-04-22T04:49:07.603Z,9.7
2019-04-22T04:51:55.653Z,9.7
2019-04-22T04:53:12.842Z,9.8
2019-04-22T04:54:10.384Z,9.8
2019-04-22T04:56:02.065Z,9.8
2019-04-22T04:57:00.884Z,9.9
2019-04-22T04:58:13.514Z,9.8
2019-04-22T04:59:19.505Z,9.9
2019-04-22T05:00:32.611Z,9.8
2019-04-22T05:01:10.894Z,10.0
2019-04-22T05:02:09.519Z,10.0
2019-04-22T05:03:13.606Z,10.0
2019-04-22T05:04:14.302Z,10.1
2019-04-22T05:05:16.802Z,10.1
2019-04-22T05:06:21.629Z,10.1
2019-04-22T05:07:18.324Z,10.2
2019-04-22T05:08:35.346Z,10.2
2019-04-22T05:09:26.180Z,10.3
2019-04-22T05:11:24.886Z,10.4
2019-04-22T05:13:29.443Z,10.5
2019-04-22T05:15:27.699Z,10.6
2019-04-22T05:16:32.484Z,10.5
2019-04-22T05:17:45.535Z,10.5
2019-04-22T05:18:37.730Z,10.6
2019-04-22T05:19:31.939Z,10.7
2019-04-22T05:20:48.722Z,10.7
2019-04-22T05:22:34.143Z,10.8
2019-04-22T05:23:37.437Z,10.8
2019-04-22T05:24:40.517Z,10.9
2019-04-22T05:25:32.338Z,11.0
2019-04-22T05:26:44.808Z,11.1
2019-04-22T05:27:39.750Z,11.1
2019-04-22T05:28:42.250Z,11.1
2019-04-22T05:30:00.171Z,11.2
2019-04-22T05:30:39.559Z,11.2
2019-04-22T05:31:52.222Z,11.3
2019-04-22T05:33:48.338Z,11.5
2019-04-22T05:34:48.197Z,11.6
2019-04-22T05:35:53.543Z,11.7
2019-04-22T05:36:52.758Z,11.7
2019-04-22T05:37:58.037Z,11.7
2019-04-22T05:39:06.096Z,11.9
2019-04-22T05:40:06.571Z,11.9
2019-04-22T05:41:00.605Z,12.0
2019-04-22T05:42:03.143Z,12.2
2019-04-22T05:43:02.241Z,12.3
2019-04-22T05:44:06.298Z,12.4
2019-04-22T05:45:08.910Z,12.5
2019-04-22T05:46:05.722Z,12.6
2019-04-22T05:47:08.103Z,12.6
2019-04-22T05:48:04.153Z,12.7
2019-04-22T05:49:15.007Z,12.8
2019-04-22T05:50:10.347Z,12.9
2019-04-22T05:51:14.756Z,13.0
2019-04-22T05:52:17.264Z,13.0
2019-04-22T05:53:16.597Z,13.1
2019-04-22T05:55:28.511Z,13.2
2019-04-22T05:56:28.063Z,13.3
2019-04-22T05:57:17.947Z,13.3
2019-04-22T05:58:22.539Z,13.4
2019-04-22T05:59:28.990Z,13.5
2019-04-22T06:00:30.920Z,13.6
2019-04-22T06:02:40.061Z,13.8
2019-04-22T06:03:32.432Z,14.0
2019-04-22T06:04:31.016Z,14.1
2019-04-22T06:06:36.720Z,14.3
2019-04-22T06:07:32.354Z,14.3
2019-04-22T06:08:42.119Z,14.5
2019-04-22T06:09:32.674Z,14.5
2019-04-22T06:11:34.059Z,14.7
2019-04-22T06:12:32.632Z,14.9
2019-04-22T06:14:44.594Z,15.0
2019-04-22T06:15:44.121Z,15.1
2019-04-22T06:17:54.776Z,15.3
2019-04-22T06:18:54.905Z,15.4
2019-04-22T06:19:50.511Z,15.6
2019-04-22T06:22:00.821Z,15.9
2019-04-22T06:22:59.627Z,16.1
2019-04-22T06:24:04.959Z,16.3
2019-04-22T06:25:06.404Z,17.2
2019-04-22T06:27:07.974Z,20.4
2019-04-22T06:28:03.345Z,20.8
2019-04-22T06:29:09.239Z,21.3
2019-04-22T06:30:07.989Z,21.7
2019-04-22T06:31:12.280Z,21.6
2019-04-22T06:32:23.332Z,21.6
2019-04-22T06:33:15.933Z,22.2
2019-04-22T06:34:17.904Z,23.5
2019-04-22T06:35:23.594Z,24.8
2019-04-22T06:36:16.258Z,25.9
2019-04-22T06:37:17.454Z,27.4
2019-04-22T06:38:31.556Z,29.1
2019-04-22T06:39:34.392Z,30.5
2019-04-22T06:40:24.688Z,31.0
2019-04-22T06:41:29.892Z,31.8
2019-04-22T06:42:28.397Z,32.6
2019-04-22T06:43:30.127Z,32.9
2019-04-22T06:44:29.892Z,33.7
2019-04-22T06:45:30.601Z,34.5
2019-04-22T06:47:49.196Z,35.4
2019-04-22T06:48:30.081Z,36.0
2019-04-22T06:49:35.633Z,36.6
2019-04-22T06:50:44.334Z,36.5
2019-04-22T06:51:37.627Z,36.8
2019-04-22T06:52:38.291Z,36.6
2019-04-22T06:53:40.576Z,37.1
2019-04-22T06:54:44.544Z,37.7
2019-04-22T06:56:42.807Z,37.7
2019-04-22T06:57:45.022Z,38.3
2019-04-22T06:58:47.754Z,38.9
2019-04-22T06:59:55.266Z,38.1
2019-04-22T07:00:46.037Z,38.3
2019-04-22T07:01:48.633Z,38.8
2019-04-22T07:03:53.991Z,39.5
2019-04-22T07:04:56.492Z,39.4
2019-04-22T07:06:04.016Z,39.5
2019-04-22T07:07:12.224Z,40.0
2019-04-22T07:08:04.399Z,39.9
2019-04-22T07:09:25.292Z,40.6
2019-04-22T07:10:20.509Z,40.6
2019-04-22T07:11:04.526Z,40.4
2019-04-22T07:12:11.947Z,39.7
2019-04-22T07:13:11.503Z,40.3
2019-04-22T07:14:06.892Z,40.5
2019-04-22T07:15:23.193Z,41.2
2019-04-22T07:16:13.217Z,41.3
2019-04-22T07:17:15.038Z,41.7
2019-04-22T07:18:21.203Z,41.8
2019-04-22T07:19:20.566Z,41.4
2019-04-22T07:20:18.046Z,41.1
2019-04-22T07:21:19.791Z,41.6
2019-04-22T07:22:27.824Z,41.9
2019-04-22T07:25:25.945Z,41.4
2019-04-22T07:26:25.222Z,40.8
2019-04-22T07:27:27.481Z,40.8
2019-04-22T07:28:27.397Z,41.0
2019-04-22T07:29:32.580Z,41.2
2019-04-22T07:30:35.025Z,38.8
2019-04-22T07:31:37.378Z,36.7
2019-04-22T07:33:00.683Z,35.1
2019-04-22T07:33:38.050Z,33.9
2019-04-22T07:34:42.647Z,34.6
2019-04-22T07:35:46.383Z,35.6
2019-04-22T07:38:00.298Z,39.5
2019-04-22T07:38:53.086Z,40.7
2019-04-22T07:39:45.993Z,41.9
2019-04-22T07:41:51.516Z,43.2
2019-04-22T07:42:49.345Z,43.4
2019-04-22T07:44:07.451Z,44.0
2019-04-22T07:44:59.116Z,43.4
2019-04-22T07:45:53.418Z,41.3
2019-04-22T07:47:04.809Z,40.1
2019-04-22T07:48:04.703Z,40.5
2019-04-22T07:49:00.009Z,41.3
2019-04-22T07:50:05.833Z,41.6
2019-04-22T07:52:05.069Z,39.0
2019-04-22T07:53:07.699Z,38.1
2019-04-22T07:54:11.173Z,37.9
2019-04-22T07:55:07.104Z,37.8
2019-04-22T07:56:16.736Z,38.0
2019-04-22T07:57:19.906Z,36.9
2019-04-22T07:58:18.484Z,35.6
2019-04-22T07:59:18.472Z,35.6
2019-04-22T08:00:16.197Z,35.4
2019-04-22T08:01:21.698Z,37.7
2019-04-22T08:02:10.335Z,39.8
2019-04-22T08:04:34.741Z,40.6
2019-04-22T08:05:24.879Z,41.1
2019-04-22T08:06:23.590Z,42.2
2019-04-22T08:07:30.351Z,42.0
2019-04-22T08:09:37.427Z,42.9
2019-04-22T08:10:34.442Z,43.4
2019-04-22T08:11:51.174Z,44.0
2019-04-22T08:13:38.799Z,41.7
2019-04-22T08:14:41.758Z,39.4
2019-04-22T08:15:40.345Z,38.8
2019-04-22T08:16:46.621Z,39.0
2019-04-22T08:18:40.585Z,40.2
2019-04-22T08:19:43.208Z,40.0
2019-04-22T08:20:48.686Z,41.4
2019-04-22T08:21:46.239Z,41.8
2019-04-22T08:22:51.059Z,41.4
2019-04-22T08:23:51.048Z,40.4
2019-04-22T08:25:47.474Z,41.6
2019-04-22T08:26:53.183Z,40.7
2019-04-22T08:27:57.083Z,39.8
2019-04-22T08:28:57.992Z,39.5
2019-04-22T08:31:05.256Z,41.7
2019-04-22T08:31:59.134Z,42.4
2019-04-22T08:33:01.061Z,42.7
2019-04-22T08:34:12.216Z,41.7
2019-04-22T08:35:05.087Z,39.5
2019-04-22T08:38:14.954Z,39.8
2019-04-22T08:39:26.798Z,41.5
2019-04-22T08:40:26.020Z,41.9
2019-04-22T08:41:22.930Z,41.5
2019-04-22T08:42:29.454Z,40.0
2019-04-22T08:43:20.514Z,38.8
2019-04-22T08:44:17.456Z,38.1
2019-04-22T08:45:25.018Z,40.4
2019-04-22T08:46:30.167Z,42.0
2019-04-22T08:47:30.891Z,43.0
2019-04-22T08:48:23.101Z,44.1
2019-04-22T08:49:23.178Z,45.3
2019-04-22T08:50:29.092Z,45.9
2019-04-22T08:52:48.142Z,44.8
2019-04-22T08:53:34.299Z,43.2
2019-04-22T08:55:38.424Z,39.6
2019-04-22T08:57:46.982Z,40.8
2019-04-22T08:58:41.897Z,42.7
2019-04-22T08:59:44.375Z,43.3
2019-04-22T09:01:40.063Z,46.0
2019-04-22T09:02:52.138Z,46.4
2019-04-22T09:03:50.666Z,46.0
2019-04-22T09:04:48.367Z,46.7
2019-04-22T09:07:53.384Z,47.3
2019-04-22T09:08:54.119Z,47.8
2019-04-22T09:09:55.673Z,48.3
2019-04-22T09:11:04.679Z,49.2
2019-04-22T09:12:07.873Z,48.7
2019-04-22T09:13:22.500Z,48.5
2019-04-22T09:14:11.601Z,48.8
2019-04-22T09:15:10.209Z,49.2
2019-04-22T09:16:17.073Z,49.5
2019-04-22T09:17:14.851Z,49.5
2019-04-22T09:18:16.066Z,49.1
2019-04-22T09:19:16.603Z,48.6
2019-04-22T09:20:21.979Z,49.2
2019-04-22T09:22:17.224Z,49.0
2019-04-22T09:23:28.430Z,48.5
2019-04-22T09:24:23.191Z,47.9
2019-04-22T09:25:27.461Z,46.8
2019-04-22T09:26:31.047Z,43.4
2019-04-22T09:28:34.620Z,37.5
2019-04-22T09:29:37.642Z,35.6
2019-04-22T09:30:34.763Z,35.0
2019-04-22T09:31:35.929Z,34.8
2019-04-22T09:32:38.860Z,35.0
2019-04-22T09:34:39.872Z,35.5
2019-04-22T09:35:48.271Z,35.5
2019-04-22T09:36:44.001Z,38.0
2019-04-22T09:38:41.111Z,41.0
2019-04-22T09:39:51.692Z,42.9
2019-04-22T09:40:47.030Z,43.8
2019-04-22T09:42:53.274Z,44.3
2019-04-22T09:43:53.614Z,45.4
2019-04-22T09:45:53.298Z,46.2
2019-04-22T09:46:55.242Z,46.8
2019-04-22T09:48:03.169Z,47.9
2019-04-22T09:50:03.766Z,49.2
2019-04-22T09:50:58.861Z,48.3
2019-04-22T09:52:08.866Z,48.2
2019-04-22T09:53:08.717Z,48.4
2019-04-22T09:54:16.699Z,48.8
2019-04-22T09:56:10.160Z,46.7
2019-04-22T09:57:09.509Z,47.5
2019-04-22T09:58:14.819Z,47.5
2019-04-22T09:59:14.037Z,47.6
2019-04-22T10:00:17.021Z,45.4
2019-04-22T10:01:26.103Z,43.3
2019-04-22T10:02:33.914Z,42.7
2019-04-22T10:03:19.921Z,41.8
2019-04-22T10:04:18.385Z,41.1
2019-04-22T10:05:22.573Z,39.8
2019-04-22T10:07:25.997Z,37.2
2019-04-22T10:08:33.867Z,36.1
2019-04-22T10:09:42.976Z,35.9
2019-04-22T10:10:30.362Z,35.2
2019-04-22T10:11:33.982Z,36.0
2019-04-22T10:12:46.891Z,36.0
2019-04-22T10:13:34.539Z,35.5
2019-04-22T10:14:38.475Z,35.5
2019-04-22T10:15:39.735Z,35.8
2019-04-22T10:17:39.693Z,38.2
2019-04-22T10:18:42.066Z,38.3
2019-04-22T10:19:41.088Z,37.5
2019-04-22T10:20:45.872Z,38.3
2019-04-22T10:22:46.371Z,38.3
2019-04-22T10:23:45.822Z,37.7
2019-04-22T10:24:44.686Z,37.2
2019-04-22T10:25:54.105Z,35.3
2019-04-22T10:26:55.342Z,33.9
2019-04-22T10:27:55.226Z,33.0
2019-04-22T10:31:07.271Z,31.0
2019-04-22T10:33:00.793Z,30.4
2019-04-22T10:33:49.675Z,29.8
2019-04-22T10:34:44.445Z,29.8
2019-04-22T10:35:39.481Z,29.8
2019-04-22T10:36:44.036Z,29.7
2019-04-22T10:37:42.754Z,29.8
2019-04-22T10:38:44.430Z,29.6
2019-04-22T10:39:52.930Z,29.3
2019-04-22T10:40:46.801Z,29.1
2019-04-22T10:41:48.496Z,29.1
2019-04-22T10:42:49.472Z,29.3
2019-04-22T10:43:50.920Z,29.5
2019-04-22T10:44:53.691Z,29.8
2019-04-22T10:45:54.347Z,29.9
2019-04-22T10:46:55.915Z,29.7
2019-04-22T10:47:56.346Z,30.2
2019-04-22T10:48:57.963Z,30.5
2019-04-22T10:50:00.535Z,30.9
2019-04-22T10:51:01.015Z,30.7
2019-04-22T10:52:02.674Z,30.1
2019-04-22T10:53:03.557Z,30.4
2019-04-22T10:54:05.213Z,30.4
2019-04-22T10:55:07.228Z,30.6
2019-04-22T10:56:07.547Z,30.1
2019-04-22T10:57:09.125Z,30.2
2019-04-22T10:58:10.722Z,30.5
2019-04-22T10:59:11.897Z,30.8
2019-04-22T11:00:13.609Z,31.2
2019-04-22T11:01:15.715Z,31.3
2019-04-22T11:02:16.983Z,31.2
2019-04-22T11:03:18.216Z,31.4
2019-04-22T11:04:19.458Z,32.4
2019-04-22T11:05:20.394Z,32.6
2019-04-22T11:06:23.160Z,31.8
2019-04-22T11:07:31.098Z,32.6
2019-04-22T11:08:32.634Z,32.7
2019-04-22T11:09:26.957Z,32.4
2019-04-22T11:10:44.565Z,31.6
2019-04-22T11:11:41.130Z,30.7
2019-04-22T11:12:32.354Z,30.6
2019-04-22T11:13:31.775Z,30.2
2019-04-22T11:14:32.961Z,30.4
2019-04-22T11:15:34.835Z,30.4
2019-04-22T11:16:36.994Z,30.4
2019-04-22T11:17:37.671Z,30.5
2019-04-22T11:18:38.692Z,30.6
2019-04-22T11:19:41.422Z,30.7
2019-04-22T11:20:41.859Z,30.3
2019-04-22T11:21:44.569Z,30.5
2019-04-22T11:22:44.668Z,31.0
2019-04-22T11:23:46.829Z,31.8
2019-04-22T11:24:48.578Z,32.0
2019-04-22T11:25:49.918Z,32.4
2019-04-22T11:26:50.263Z,32.4
2019-04-22T11:27:51.716Z,32.4
2019-04-22T11:28:53.933Z,33.0
2019-04-22T11:29:55.375Z,33.4
2019-04-22T11:30:56.374Z,33.4
2019-04-22T11:31:57.200Z,32.0
2019-04-22T11:32:58.784Z,32.5
2019-04-22T11:34:00.751Z,32.0
2019-04-22T11:35:01.829Z,31.8
2019-04-22T11:36:03.854Z,31.4
2019-04-22T11:37:05.260Z,31.6
2019-04-22T11:38:06.705Z,31.6
2019-04-22T11:39:09.700Z,31.3
2019-04-22T11:40:21.110Z,31.2
2019-04-22T11:41:10.736Z,30.9
2019-04-22T11:42:12.339Z,30.7
2019-04-22T11:43:14.558Z,30.2
2019-04-22T11:44:15.211Z,29.6
2019-04-22T11:45:17.299Z,28.9
2019-04-22T11:46:17.809Z,28.9
2019-04-22T11:47:19.328Z,28.7
2019-04-22T11:48:21.377Z,28.3
2019-04-22T11:49:21.969Z,27.9
2019-04-22T11:50:24.231Z,27.9
2019-04-22T11:51:24.759Z,27.6
2019-04-22T11:52:26.926Z,27.5
2019-04-22T11:53:28.919Z,27.5
2019-04-22T11:54:30.264Z,27.8
2019-04-22T11:55:30.923Z,28.1
2019-04-22T11:56:32.153Z,28.2
2019-04-22T11:57:34.906Z,28.3
2019-04-22T11:59:15.097Z,28.9
2019-04-22T12:00:16.848Z,29.4
2019-04-22T12:01:19.000Z,29.9
2019-04-22T12:02:20.064Z,30.5
2019-04-22T12:03:21.041Z,31.3
2019-04-22T12:04:22.117Z,31.6
2019-04-22T12:05:23.752Z,32.7
2019-04-22T12:06:26.080Z,33.1
2019-04-22T12:07:26.687Z,32.8
2019-04-22T12:08:28.996Z,32.5
2019-04-22T12:09:29.935Z,32.3
2019-04-22T12:10:38.934Z,32.7
2019-04-22T12:11:32.427Z,32.0
2019-04-22T12:12:34.543Z,31.2
2019-04-22T12:13:35.789Z,30.4
2019-04-22T12:14:36.468Z,29.9
2019-04-22T12:15:37.867Z,29.4
2019-04-22T12:16:39.590Z,29.3
2019-04-22T12:17:42.571Z,29.3
2019-04-22T12:18:43.096Z,28.7
2019-04-22T12:19:44.209Z,28.1
2019-04-22T12:20:45.505Z,27.9
2019-04-22T12:21:46.952Z,27.6
2019-04-22T12:22:49.144Z,27.1
2019-04-22T12:23:50.819Z,26.9
2019-04-22T12:24:52.367Z,26.8
2019-04-22T12:26:01.276Z,26.8
2019-04-22T12:26:54.359Z,26.8
2019-04-22T12:27:57.003Z,26.9
2019-04-22T12:28:57.407Z,27.0
2019-04-22T12:29:58.781Z,26.7
2019-04-22T12:31:00.000Z,26.6
2019-04-22T12:32:01.569Z,26.3
2019-04-22T12:33:04.385Z,26.0
2019-04-22T12:34:05.872Z,25.9
2019-04-22T12:35:07.180Z,25.9
2019-04-22T12:36:08.611Z,25.9
2019-04-22T12:37:08.782Z,26.0
2019-04-22T12:38:11.180Z,25.9
2019-04-22T12:39:11.658Z,25.8
2019-04-22T12:40:13.085Z,25.9
2019-04-22T12:41:15.902Z,26.1
2019-04-22T12:42:17.352Z,26.1
2019-04-22T12:43:20.224Z,26.1
2019-04-22T12:44:20.125Z,26.1
2019-04-22T12:45:20.537Z,25.8
2019-04-22T12:46:21.785Z,25.6
2019-04-22T12:47:24.343Z,25.5
2019-04-22T12:48:25.448Z,25.4
2019-04-22T12:49:26.153Z,25.4
2019-04-22T12:50:32.789Z,25.3
2019-04-22T12:51:29.213Z,25.3
2019-04-22T12:52:36.967Z,25.4
2019-04-22T12:53:32.079Z,25.2
2019-04-22T12:54:35.138Z,25.3
2019-04-22T12:55:35.459Z,25.4
2019-04-22T12:56:37.586Z,25.5
2019-04-22T12:57:38.878Z,25.6
2019-04-22T12:58:41.207Z,25.7
2019-04-22T12:59:41.895Z,25.6
2019-04-22T13:00:44.847Z,25.7
2019-04-22T13:01:46.561Z,25.3
2019-04-22T13:02:47.293Z,25.4
2019-04-22T13:03:49.982Z,25.2
2019-04-22T13:04:50.443Z,25.2
2019-04-22T13:05:52.123Z,25.4
2019-04-22T13:06:55.472Z,25.4
2019-04-22T13:07:55.818Z,25.4
2019-04-22T13:08:57.396Z,25.3
2019-04-22T13:09:59.247Z,25.0
2019-04-22T13:11:06.822Z,25.0
2019-04-22T13:12:03.286Z,24.9
2019-04-22T13:13:05.000Z,24.8
2019-04-22T13:14:05.135Z,24.9
2019-04-22T13:15:07.859Z,24.9
2019-04-22T13:16:09.022Z,24.9
2019-04-22T13:17:10.490Z,25.0
2019-04-22T13:18:20.796Z,25.0
2019-04-22T13:19:15.260Z,25.0
2019-04-22T13:20:16.647Z,25.0
2019-04-22T13:21:16.542Z,24.8
2019-04-22T13:22:19.067Z,24.8
2019-04-22T13:23:25.578Z,24.8
2019-04-22T13:24:27.998Z,24.7
2019-04-22T13:25:29.953Z,24.8
2019-04-22T13:26:31.832Z,24.8
2019-04-22T13:27:33.156Z,24.7
2019-04-22T13:28:34.655Z,24.8
2019-04-22T13:29:35.147Z,24.8
2019-04-22T13:30:36.979Z,24.6
2019-04-22T13:31:38.577Z,24.7
2019-04-22T13:32:40.675Z,24.7
2019-04-22T13:33:43.054Z,24.7
2019-04-22T13:34:48.024Z,24.6
2019-04-22T13:35:45.706Z,24.6
2019-04-22T13:36:48.211Z,24.5
2019-04-22T13:37:48.768Z,24.5
2019-04-22T13:38:51.303Z,24.5
2019-04-22T13:39:52.718Z,24.5
2019-04-22T13:41:12.515Z,24.6
2019-04-22T13:41:59.951Z,24.6
2019-04-22T13:42:56.425Z,24.6
2019-04-22T13:43:58.091Z,24.5
2019-04-22T13:45:00.150Z,24.6
2019-04-22T13:46:01.807Z,24.5
2019-04-22T13:47:14.504Z,24.5
2019-04-22T13:48:26.719Z,24.5
2019-04-22T13:49:31.168Z,24.6
2019-04-22T13:50:47.682Z,24.5
2019-04-22T13:51:45.202Z,24.5
2019-04-22T13:52:46.337Z,24.5
2019-04-22T13:53:46.269Z,24.5
2019-04-22T13:55:57.910Z,24.4
2019-04-22T13:56:37.039Z,24.2
2019-04-22T13:57:38.168Z,24.2
2019-04-22T13:58:38.212Z,24.2
2019-04-22T13:59:30.265Z,24.3
2019-04-22T14:00:24.770Z,24.2
2019-04-22T14:01:25.340Z,24.1
2019-04-22T14:02:28.497Z,24.1
2019-04-22T14:03:29.020Z,24.2
2019-04-22T14:04:30.461Z,24.2
2019-04-22T14:05:32.930Z,24.2
2019-04-22T14:06:34.530Z,24.2
2019-04-22T14:07:35.095Z,24.2
2019-04-22T14:08:37.589Z,24.2
2019-04-22T14:09:39.787Z,24.2
2019-04-22T14:10:40.620Z,24.2
2019-04-22T14:11:49.327Z,24.2
2019-04-22T14:12:44.632Z,24.1
2019-04-22T14:13:45.977Z,24.1
2019-04-22T14:14:49.063Z,24.1
2019-04-22T14:15:48.688Z,24.1
2019-04-22T14:16:50.942Z,24.1
2019-04-22T14:17:52.635Z,24.0
2019-04-22T14:18:53.877Z,24.0
2019-04-22T14:19:55.082Z,24.1
2019-04-22T14:20:56.711Z,24.1
2019-04-22T14:21:59.701Z,24.1
2019-04-22T14:23:02.611Z,24.2
2019-04-22T14:24:02.592Z,24.1
2019-04-22T14:25:03.142Z,24.2
2019-04-22T14:26:05.235Z,24.2
2019-04-22T14:27:15.142Z,24.2
2019-04-22T14:28:11.850Z,24.2
2019-04-22T14:29:11.273Z,24.2
2019-04-22T14:30:12.559Z,24.1
2019-04-22T14:31:12.857Z,24.1
2019-04-22T14:32:19.329Z,24.1
2019-04-22T14:33:16.344Z,24.0
2019-04-22T14:34:18.847Z,24.0
2019-04-22T14:35:20.874Z,24.0
2019-04-22T14:36:21.511Z,23.9
2019-04-22T14:37:24.282Z,23.9
2019-04-22T14:38:25.924Z,23.9
2019-04-22T14:39:26.280Z,24.0
2019-04-22T14:40:28.734Z,23.9
2019-04-22T14:41:40.667Z,24.0
2019-04-22T14:42:52.306Z,23.8
2019-04-22T14:44:00.811Z,23.8
2019-04-22T14:47:05.724Z,23.9
2019-04-22T14:48:07.744Z,23.8
2019-04-22T14:49:06.423Z,23.8
2019-04-22T14:50:05.225Z,23.8
2019-04-22T14:51:05.926Z,23.8
2019-04-22T14:52:13.003Z,23.8
2019-04-22T14:53:10.067Z,23.8
2019-04-22T14:54:06.717Z,23.8
2019-04-22T14:55:02.932Z,23.8
2019-04-22T14:55:52.575Z,23.8
2019-04-22T14:56:54.148Z,23.7
2019-04-22T14:57:55.047Z,23.7
2019-04-22T14:58:56.579Z,23.8
2019-04-22T14:59:57.943Z,23.8
2019-04-22T15:01:01.109Z,23.8
2019-04-22T15:02:01.430Z,23.8
2019-04-22T15:03:03.685Z,23.7
2019-04-22T15:04:03.817Z,23.8
2019-04-22T15:05:06.029Z,23.7
2019-04-22T15:06:08.303Z,23.7
2019-04-22T15:07:08.863Z,23.7
2019-04-22T15:08:10.862Z,23.7
2019-04-22T15:09:12.106Z,23.7
2019-04-22T15:10:13.612Z,23.8
2019-04-22T15:11:14.883Z,23.8
2019-04-22T15:12:25.643Z,23.7
2019-04-22T15:13:17.663Z,23.8
2019-04-22T15:14:19.317Z,23.8
2019-04-22T15:15:19.719Z,23.8
2019-04-22T15:16:21.082Z,23.6
2019-04-22T15:17:22.891Z,23.7
2019-04-22T15:18:24.079Z,23.6
2019-04-22T15:19:25.595Z,23.6
2019-04-22T15:20:27.663Z,23.6
2019-04-22T15:21:28.897Z,23.6